Time;durP1;ratioP1;P1;durP2;ratioP2;P2;SDS_P1;SDS_P2;PMS_P1;PMS_P2;Temp;Humidity;BMP_temperature;BMP_pressure;BME280_temperature;BME280_humidity;BME280_pressure;Samples;Min_cycle;Max_cycle;Signal;HPM_P1;HPM_P2
2021/01/13 21:55:46;;;;;;;1.40;1.30;;;2.80;99.90;;;;;;5076406;27;20627;-77
2021/01/13 21:58:13;;;;;;;1.52;1.42;;;2.90;99.90;;;;;;5063274;28;20683;-77
2021/01/13 22:00:40;;;;;;;2.03;1.80;;;3.20;99.90;;;;;;5053976;28;20779;-77
2021/01/13 22:03:07;;;;;;;2.78;2.38;;;3.40;99.90;;;;;;5055388;28;20250;-77
2021/01/13 22:05:35;;;;;;;2.15;1.20;;;3.60;99.90;;;;;;5056172;28;20316;-77
2021/01/13 22:08:02;;;;;;;2.35;1.27;;;3.80;99.90;;;;;;5067803;28;20262;-79
2021/01/13 22:10:29;;;;;;;1.20;1.10;;;4.00;99.90;;;;;;5071042;28;20471;-76
2021/01/13 22:12:57;;;;;;;0.90;0.80;;;4.10;99.30;;;;;;5053277;28;20274;-75
2021/01/13 22:15:24;;;;;;;0.90;0.70;;;4.20;83.20;;;;;;5059917;28;20493;-77
2021/01/13 22:17:51;;;;;;;0.60;0.60;;;4.30;43.30;;;;;;5060848;28;20474;-77
2021/01/13 22:20:18;;;;;;;0.50;0.50;;;4.30;8.50;;;;;;5070648;28;20236;-77
2021/01/13 22:22:46;;;;;;;2.00;0.50;;;4.40;1.00;;;;;;5060330;28;20216;-75
2021/01/13 22:25:14;;;;;;;0.50;0.40;;;4.50;1.00;;;;;;5075321;28;20258;-75
2021/01/13 22:27:41;;;;;;;0.60;0.60;;;4.50;1.00;;;;;;5060671;28;20531;-75
2021/01/13 22:30:10;;;;;;;0.70;0.60;;;4.50;1.00;;;;;;5064373;28;20458;-79
2021/01/13 22:32:38;;;;;;;0.85;0.70;;;4.60;1.00;;;;;;5060495;28;20682;-77
2021/01/13 22:35:08;;;;;;;1.85;1.23;;;4.60;1.00;;;;;;5068075;28;20244;-79
2021/01/13 22:37:36;;;;;;;0.55;0.55;;;4.40;1.00;;;;;;5072961;28;20217;-78
2021/01/13 22:40:04;;;;;;;0.70;0.57;;;4.40;1.00;;;;;;5059705;28;20386;-78
2021/01/13 22:42:31;;;;;;;1.77;0.50;;;4.30;1.00;;;;;;5073892;28;20270;-77
2021/01/13 22:44:58;;;;;;;0.80;0.50;;;4.30;1.00;;;;;;5057867;28;20263;-76
2021/01/13 22:47:26;;;;;;;0.60;0.60;;;4.40;1.00;;;;;;5061221;28;20517;-78
2021/01/13 22:49:53;;;;;;;1.95;0.50;;;4.30;1.00;;;;;;5074994;28;20483;-78
2021/01/13 22:52:21;;;;;;;1.20;0.52;;;4.20;1.00;;;;;;5064048;28;20209;-77
2021/01/13 22:54:48;;;;;;;0.50;0.40;;;4.10;1.00;;;;;;5063573;28;20704;-77
2021/01/13 22:57:15;;;;;;;0.50;0.50;;;3.90;99.90;;;;;;5078589;28;20216;-76
2021/01/13 22:59:42;;;;;;;0.65;0.40;;;3.80;99.90;;;;;;5065988;28;20820;-77
2021/01/13 23:02:09;;;;;;;0.77;0.50;;;3.70;1.00;;;;;;5055105;28;20691;-78
2021/01/13 23:04:39;;;;;;;1.73;0.60;;;3.70;99.90;;;;;;5060355;28;20292;-76
2021/01/13 23:07:08;;;;;;;0.52;0.52;;;3.60;99.90;;;;;;5048199;28;20215;-77
2021/01/13 23:09:35;;;;;;;0.50;0.50;;;3.60;1.00;;;;;;5046610;28;20226;-78
2021/01/13 23:12:02;;;;;;;1.38;0.50;;;3.60;1.00;;;;;;5051151;28;20217;-76
2021/01/13 23:14:29;;;;;;;1.38;0.60;;;3.60;1.00;;;;;;5049183;28;20245;-77
2021/01/13 23:16:57;;;;;;;1.10;0.50;;;3.60;1.00;;;;;;5048102;28;20219;-80
2021/01/13 23:19:24;;;;;;;0.52;0.50;;;3.60;1.00;;;;;;5047560;28;20209;-78
2021/01/13 23:21:52;;;;;;;0.60;0.50;;;3.70;1.00;;;;;;5050889;28;20278;-77
2021/01/13 23:24:19;;;;;;;0.50;0.50;;;3.70;1.00;;;;;;5045104;28;20287;-77
2021/01/13 23:26:46;;;;;;;0.50;0.50;;;3.60;1.00;;;;;;5047731;28;20223;-73
2021/01/13 23:29:13;;;;;;;0.40;0.40;;;3.60;1.00;;;;;;5047337;28;20210;-78
2021/01/13 23:31:41;;;;;;;0.40;0.40;;;3.60;1.00;;;;;;5049441;28;20325;-74
2021/01/13 23:34:08;;;;;;;2.25;0.50;;;3.60;1.00;;;;;;5043340;28;20241;-75
2021/01/13 23:36:36;;;;;;;0.40;0.40;;;3.50;1.00;;;;;;5048462;28;20801;-76
2021/01/13 23:39:05;;;;;;;0.63;0.50;;;3.50;1.00;;;;;;5042190;28;20688;-76
2021/01/13 23:41:32;;;;;;;0.52;0.50;;;3.50;1.00;;;;;;5046070;28;20221;-75
2021/01/13 23:43:59;;;;;;;0.70;0.57;;;3.50;1.00;;;;;;5041384;28;20233;-74
2021/01/13 23:46:26;;;;;;;0.55;0.55;;;3.60;1.00;;;;;;5050713;28;20224;-74
2021/01/13 23:48:53;;;;;;;0.57;0.57;;;3.50;1.00;;;;;;5055668;28;20582;-74
2021/01/13 23:51:23;;;;;;;0.50;0.50;;;3.50;1.00;;;;;;5044408;28;20722;-74
2021/01/13 23:53:50;;;;;;;0.63;0.50;;;3.50;1.00;;;;;;5044479;28;20235;-74
2021/01/13 23:56:18;;;;;;;0.70;0.50;;;3.50;1.00;;;;;;5038934;28;20217;-74
2021/01/13 23:58:45;;;;;;;0.50;0.50;;;3.50;1.00;;;;;;5045242;28;20221;-74
